Time,TemperatureF,DewpointF,PressureIn,WindDirection,WindDirectionDegrees,WindSpeedMPH,WindSpeedGustMPH,Humidity,HourlyPrecipIn,Conditions,Clouds,dailyrainin,SoftwareType,DateUTC
2013-03-07 00:01:00,46.0,37.0,29.96,SW,225,8.0,14.0,72,0.00,,,0.00,,2013-03-07 08:01:00,
2013-03-07 00:11:00,46.0,37.0,29.96,SW,225,8.0,14.0,72,0.00,,,0.00,,2013-03-07 08:11:00,
2013-03-07 00:22:00,42.0,35.0,29.97,SW,218,5.0,10.0,76,0.00,,,0.00,,2013-03-07 08:22:00,
2013-03-07 00:31:00,42.0,35.0,29.97,SW,222,3.0,10.0,77,0.00,,,0.00,,2013-03-07 08:31:00,
2013-03-07 00:43:00,42.0,35.0,29.97,SW,222,3.0,10.0,77,0.00,,,0.00,,2013-03-07 08:43:00,
2013-03-07 00:53:00,42.0,35.0,29.97,WSW,240,2.0,6.0,77,0.00,,,0.00,,2013-03-07 08:53:00,
2013-03-07 01:01:00,42.0,35.0,29.97,WSW,242,2.0,4.0,77,0.00,,,0.00,,2013-03-07 09:01:00,
2013-03-07 01:11:00,42.0,35.0,29.97,WSW,242,2.0,4.0,77,0.00,,,0.00,,2013-03-07 09:11:00,
2013-03-07 01:21:00,41.0,34.0,29.97,SW,236,3.0,6.0,77,0.00,,,0.00,,2013-03-07 09:21:00,
2013-03-07 01:31:00,41.0,35.0,29.96,SW,230,4.0,6.0,79,0.00,,,0.00,,2013-03-07 09:31:00,
2013-03-07 01:41:00,41.0,35.0,29.96,SW,230,4.0,6.0,79,0.00,,,0.00,,2013-03-07 09:41:00,
2013-03-07 01:52:00,42.0,36.0,29.96,SW,227,3.0,10.0,79,0.00,,,0.00,,2013-03-07 09:52:00,
2013-03-07 02:01:00,41.0,35.0,29.97,SW,235,5.0,10.0,78,0.00,,,0.00,,2013-03-07 10:01:00,
2013-03-07 02:11:00,41.0,35.0,29.97,SW,235,5.0,10.0,78,0.00,,,0.00,,2013-03-07 10:11:00,
2013-03-07 02:21:00,42.0,36.0,29.96,WSW,252,5.0,9.0,78,0.00,,,0.00,,2013-03-07 10:21:00,
2013-03-07 02:32:00,43.0,36.0,29.96,West,268,3.0,8.0,76,0.00,,,0.00,,2013-03-07 10:32:00,
2013-03-07 02:41:00,43.0,36.0,29.96,West,268,3.0,8.0,76,0.00,,,0.00,,2013-03-07 10:41:00,
2013-03-07 02:52:00,43.0,36.0,29.96,WSW,256,3.0,6.0,75,0.00,,,0.00,,2013-03-07 10:52:00,
2013-03-07 03:01:00,43.0,36.0,29.95,West,264,3.0,6.0,75,0.00,,,0.00,,2013-03-07 11:01:00,
2013-03-07 03:11:00,43.0,36.0,29.95,West,264,3.0,6.0,75,0.00,,,0.00,,2013-03-07 11:11:00,
2013-03-07 03:22:00,43.0,36.0,29.95,West,266,3.0,5.0,75,0.00,,,0.00,,2013-03-07 11:22:00,
2013-03-07 03:32:00,43.0,36.0,29.95,West,273,4.0,7.0,75,0.00,,,0.00,,2013-03-07 11:32:00,
2013-03-07 03:41:00,43.0,36.0,29.95,West,273,4.0,7.0,75,0.00,,,0.00,,2013-03-07 11:41:00,
2013-03-07 03:53:00,43.0,35.0,29.96,WSW,252,4.0,10.0,73,0.00,,,0.00,,2013-03-07 11:53:00,
2013-03-07 04:01:00,43.0,36.0,29.96,WSW,251,3.0,4.0,75,0.00,,,0.00,,2013-03-07 12:01:00,
2013-03-07 04:11:00,43.0,36.0,29.96,WSW,251,3.0,4.0,75,0.00,,,0.00,,2013-03-07 12:11:00,
2013-03-07 04:21:00,43.0,36.0,29.95,WSW,256,2.0,5.0,75,0.00,,,0.00,,2013-03-07 12:21:00,
2013-03-07 04:32:00,43.0,36.0,29.96,WSW,256,2.0,5.0,75,0.00,,,0.00,,2013-03-07 12:32:00,
2013-03-07 04:42:00,43.0,36.0,29.96,WSW,256,2.0,5.0,75,0.00,,,0.00,,2013-03-07 12:42:00,
2013-03-07 04:52:00,43.0,36.0,29.96,WSW,256,3.0,5.0,75,0.00,,,0.00,,2013-03-07 12:52:00,
2013-03-07 05:01:00,42.0,35.0,29.96,WSW,256,2.0,4.0,75,0.00,,,0.00,,2013-03-07 13:01:00,
2013-03-07 05:11:00,42.0,35.0,29.96,WSW,256,2.0,4.0,75,0.00,,,0.00,,2013-03-07 13:11:00,
2013-03-07 05:22:00,41.0,34.0,29.96,WSW,256,2.0,4.0,75,0.00,,,0.00,,2013-03-07 13:22:00,
2013-03-07 05:31:00,41.0,34.0,29.96,West,272,3.0,6.0,75,0.00,,,0.00,,2013-03-07 13:31:00,
2013-03-07 05:41:00,41.0,34.0,29.96,West,272,3.0,6.0,75,0.00,,,0.00,,2013-03-07 13:41:00,
2013-03-07 05:52:00,41.0,33.0,29.96,North,0,0.0,4.0,72,0.00,,,0.00,,2013-03-07 13:52:00,
2013-03-07 06:01:00,40.0,32.0,29.96,North,0,0.0,3.0,74,0.00,,,0.00,,2013-03-07 14:01:00,
2013-03-07 06:11:00,40.0,32.0,29.96,North,0,0.0,3.0,74,0.00,,,0.00,,2013-03-07 14:11:00,
2013-03-07 06:21:00,39.0,32.0,29.96,WSW,240,3.0,4.0,77,0.00,,,0.00,,2013-03-07 14:21:00,
2013-03-07 06:31:00,40.0,33.0,29.96,WSW,242,2.0,4.0,76,0.00,,,0.00,,2013-03-07 14:31:00,
2013-03-07 06:41:00,40.0,33.0,29.96,WSW,242,2.0,4.0,76,0.00,,,0.00,,2013-03-07 14:41:00,
2013-03-07 06:53:00,39.0,33.0,29.96,West,273,4.0,5.0,78,0.00,,,0.00,,2013-03-07 14:53:00,
2013-03-07 07:01:00,40.0,34.0,29.96,West,268,4.0,7.0,78,0.00,,,0.00,,2013-03-07 15:01:00,
2013-03-07 07:11:00,40.0,34.0,29.96,West,268,4.0,7.0,78,0.00,,,0.00,,2013-03-07 15:11:00,
2013-03-07 07:21:00,42.0,34.0,29.96,WNW,292,4.0,10.0,73,0.00,,,0.00,,2013-03-07 15:21:00,
2013-03-07 07:31:00,43.0,35.0,29.96,WNW,283,3.0,7.0,72,0.00,,,0.00,,2013-03-07 15:31:00,
2013-03-07 07:41:00,43.0,35.0,29.96,WNW,283,3.0,7.0,72,0.00,,,0.00,,2013-03-07 15:41:00,
2013-03-07 07:52:00,44.0,34.0,29.96,North,0,0.0,5.0,69,0.00,,,0.00,,2013-03-07 15:52:00,
2013-03-07 08:01:00,44.0,34.0,29.96,South,186,3.0,6.0,68,0.00,,,0.00,,2013-03-07 16:01:00,
2013-03-07 08:11:00,44.0,34.0,29.96,South,186,3.0,6.0,68,0.00,,,0.00,,2013-03-07 16:11:00,
2013-03-07 08:21:00,44.0,34.0,29.96,SSW,207,5.0,12.0,67,0.00,,,0.00,,2013-03-07 16:21:00,
2013-03-07 08:31:00,45.0,33.0,29.96,SSW,197,7.0,11.0,63,0.00,,,0.00,,2013-03-07 16:31:00,
2013-03-07 08:41:00,45.0,33.0,29.96,SSW,197,7.0,11.0,63,0.00,,,0.00,,2013-03-07 16:41:00,
2013-03-07 08:52:00,47.0,33.0,29.96,SSW,213,12.0,18.0,57,0.00,,,0.00,,2013-03-07 16:52:00,
2013-03-07 09:01:00,47.0,33.0,29.97,SW,220,14.0,21.0,57,0.00,,,0.00,,2013-03-07 17:01:00,
2013-03-07 09:11:00,47.0,33.0,29.97,SW,220,14.0,21.0,57,0.00,,,0.00,,2013-03-07 17:11:00,
2013-03-07 09:21:00,48.0,34.0,29.96,SW,219,14.0,22.0,57,0.00,,,0.00,,2013-03-07 17:21:00,
2013-03-07 09:31:00,48.0,34.0,29.96,SW,219,14.0,22.0,57,0.00,,,0.00,,2013-03-07 17:31:00,
2013-03-07 09:41:00,48.0,34.0,29.96,SW,219,14.0,22.0,57,0.00,,,0.00,,2013-03-07 17:41:00,
2013-03-07 09:53:00,49.0,34.0,29.95,SW,218,12.0,20.0,55,0.00,,,0.00,,2013-03-07 17:53:00,
2013-03-07 10:01:00,49.0,34.0,29.96,SW,222,11.0,22.0,55,0.00,,,0.00,,2013-03-07 18:01:00,
2013-03-07 10:11:00,49.0,34.0,29.96,SW,222,11.0,22.0,55,0.00,,,0.00,,2013-03-07 18:11:00,
2013-03-07 10:21:00,50.0,33.0,29.95,SSW,201,14.0,23.0,52,0.00,,,0.00,,2013-03-07 18:21:00,
2013-03-07 10:31:00,50.0,33.0,29.95,SW,214,16.0,24.0,52,0.00,,,0.00,,2013-03-07 18:31:00,
2013-03-07 10:41:00,50.0,33.0,29.95,SW,214,16.0,24.0,52,0.00,,,0.00,,2013-03-07 18:41:00,
2013-03-07 10:52:00,51.0,34.0,29.95,SW,217,13.0,20.0,51,0.00,,,0.00,,2013-03-07 18:52:00,
2013-03-07 11:01:00,51.0,34.0,29.95,SW,221,12.0,21.0,52,0.00,,,0.00,,2013-03-07 19:01:00,
2013-03-07 11:11:00,51.0,31.0,29.94,SW,229,11.0,21.0,47,0.00,,,0.00,,2013-03-07 19:11:00,
2013-03-07 11:21:00,51.0,31.0,29.94,SW,229,11.0,21.0,47,0.00,,,0.00,,2013-03-07 19:21:00,
2013-03-07 11:31:00,51.0,32.0,29.95,SW,217,17.0,24.0,48,0.00,,,0.00,,2013-03-07 19:31:00,
2013-03-07 11:42:00,51.0,32.0,29.95,SW,217,17.0,24.0,48,0.00,,,0.00,,2013-03-07 19:42:00,
2013-03-07 11:52:00,52.0,33.0,29.92,SW,221,15.0,22.0,49,0.00,,,0.00,,2013-03-07 19:52:00,
2013-03-07 12:01:00,52.0,34.0,29.92,SSW,210,14.0,22.0,51,0.00,,,0.00,,2013-03-07 20:01:00,
2013-03-07 12:11:00,52.0,34.0,29.92,SSW,210,14.0,22.0,51,0.00,,,0.00,,2013-03-07 20:11:00,
2013-03-07 12:21:00,52.0,34.0,29.91,SSW,212,16.0,25.0,50,0.00,,,0.00,,2013-03-07 20:21:00,
2013-03-07 12:31:00,52.0,33.0,29.90,SSW,205,17.0,27.0,49,0.00,,,0.00,,2013-03-07 20:31:00,
2013-03-07 12:41:00,52.0,33.0,29.90,SSW,205,17.0,27.0,49,0.00,,,0.00,,2013-03-07 20:41:00,
2013-03-07 12:53:00,52.0,34.0,29.90,SSW,206,14.0,20.0,50,0.00,,,0.00,,2013-03-07 20:53:00,
2013-03-07 13:01:00,52.0,33.0,29.89,SW,215,16.0,24.0,49,0.00,,,0.00,,2013-03-07 21:01:00,
2013-03-07 13:11:00,52.0,33.0,29.89,SW,215,16.0,24.0,49,0.00,,,0.00,,2013-03-07 21:11:00,
2013-03-07 13:21:00,52.0,33.0,29.88,SW,214,14.0,25.0,49,0.00,,,0.00,,2013-03-07 21:21:00,
2013-03-07 13:31:00,52.0,34.0,29.89,SSW,201,12.0,23.0,51,0.00,,,0.00,,2013-03-07 21:31:00,
2013-03-07 13:41:00,52.0,34.0,29.89,SSW,201,12.0,23.0,51,0.00,,,0.00,,2013-03-07 21:41:00,
2013-03-07 13:52:00,52.0,34.0,29.88,SW,214,16.0,24.0,50,0.00,,,0.00,,2013-03-07 21:52:00,
2013-03-07 14:01:00,52.0,34.0,29.88,South,184,11.0,22.0,51,0.00,,,0.00,,2013-03-07 22:01:00,
2013-03-07 14:11:00,52.0,34.0,29.88,South,184,11.0,22.0,51,0.00,,,0.00,,2013-03-07 22:11:00,
2013-03-07 14:21:00,51.0,34.0,29.88,SSW,195,16.0,26.0,51,0.00,,,0.00,,2013-03-07 22:21:00,
2013-03-07 14:31:00,51.0,34.0,29.88,SSW,202,15.0,25.0,52,0.00,,,0.00,,2013-03-07 22:31:00,
2013-03-07 14:41:00,51.0,34.0,29.88,SSW,202,15.0,25.0,52,0.00,,,0.00,,2013-03-07 22:41:00,
2013-03-07 14:53:00,51.0,34.0,29.87,SSW,205,14.0,22.0,52,0.00,,,0.00,,2013-03-07 22:53:00,
2013-03-07 15:01:00,51.0,34.0,29.87,SSW,203,11.0,21.0,53,0.00,,,0.00,,2013-03-07 23:01:00,
2013-03-07 15:11:00,51.0,34.0,29.87,SSW,203,11.0,21.0,53,0.00,,,0.00,,2013-03-07 23:11:00,
2013-03-07 15:21:00,51.0,34.0,29.87,SW,217,14.0,21.0,53,0.00,,,0.00,,2013-03-07 23:21:00,
2013-03-07 15:31:00,50.0,34.0,29.87,SSW,210,12.0,20.0,54,0.00,,,0.00,,2013-03-07 23:31:00,
2013-03-07 15:41:00,50.0,34.0,29.87,SSW,210,12.0,20.0,54,0.00,,,0.00,,2013-03-07 23:41:00,
2013-03-07 15:53:00,50.0,35.0,29.87,SSW,211,10.0,23.0,56,0.00,,,0.00,,2013-03-07 23:53:00,
2013-03-07 16:01:00,49.0,34.0,29.86,SSW,207,14.0,21.0,56,0.00,,,0.00,,2013-03-08 00:01:00,
2013-03-07 16:11:00,49.0,34.0,29.86,SSW,207,14.0,21.0,56,0.00,,,0.00,,2013-03-08 00:11:00,
2013-03-07 16:21:00,49.0,35.0,29.86,SSW,209,16.0,26.0,58,0.00,,,0.00,,2013-03-08 00:21:00,
2013-03-07 16:32:00,49.0,34.0,29.86,SW,217,13.0,20.0,56,0.00,,,0.00,,2013-03-08 00:32:00,
2013-03-07 16:42:00,49.0,34.0,29.86,SW,217,13.0,20.0,56,0.00,,,0.00,,2013-03-08 00:42:00,
2013-03-07 16:53:00,49.0,33.0,29.86,SW,214,15.0,26.0,53,0.00,,,0.00,,2013-03-08 00:53:00,
2013-03-07 17:01:00,49.0,32.0,29.86,SW,214,12.0,22.0,52,0.00,,,0.00,,2013-03-08 01:01:00,
2013-03-07 17:11:00,49.0,32.0,29.86,SW,214,12.0,22.0,52,0.00,,,0.00,,2013-03-08 01:11:00,
2013-03-07 17:21:00,49.0,32.0,29.86,SSW,204,15.0,25.0,52,0.00,,,0.00,,2013-03-08 01:21:00,
2013-03-07 17:31:00,49.0,32.0,29.86,SSW,202,14.0,26.0,51,0.00,,,0.00,,2013-03-08 01:31:00,
2013-03-07 17:41:00,49.0,32.0,29.86,SSW,202,14.0,26.0,51,0.00,,,0.00,,2013-03-08 01:41:00,
2013-03-07 17:52:00,48.0,32.0,29.86,SSW,203,11.0,20.0,53,0.00,,,0.00,,2013-03-08 01:52:00,
2013-03-07 18:01:00,48.0,32.0,29.86,SSW,199,11.0,27.0,53,0.00,,,0.00,,2013-03-08 02:01:00,
2013-03-07 18:11:00,47.0,31.0,29.87,SSW,208,10.0,17.0,54,0.00,,,0.00,,2013-03-08 02:11:00,
2013-03-07 18:21:00,47.0,31.0,29.87,SSW,208,10.0,17.0,54,0.00,,,0.00,,2013-03-08 02:21:00,
2013-03-07 18:31:00,47.0,32.0,29.87,SW,217,10.0,20.0,55,0.00,,,0.00,,2013-03-08 02:31:00,
2013-03-07 18:41:00,47.0,32.0,29.87,SW,217,10.0,20.0,55,0.00,,,0.00,,2013-03-08 02:41:00,
2013-03-07 18:52:00,46.0,32.0,29.87,SW,224,15.0,25.0,58,0.00,,,0.00,,2013-03-08 02:52:00,
2013-03-07 19:01:00,46.0,32.0,29.86,SW,220,15.0,24.0,59,0.00,,,0.00,,2013-03-08 03:01:00,
2013-03-07 19:11:00,46.0,32.0,29.86,SW,220,15.0,24.0,59,0.00,,,0.00,,2013-03-08 03:11:00,
2013-03-07 19:21:00,45.0,32.0,29.88,SW,225,17.0,19.0,61,0.00,,,0.00,,2013-03-08 03:21:00,
2013-03-07 19:31:00,45.0,32.0,29.87,SW,215,14.0,19.0,61,0.00,,,0.00,,2013-03-08 03:31:00,
2013-03-07 19:41:00,45.0,32.0,29.87,SW,215,14.0,19.0,61,0.00,,,0.00,,2013-03-08 03:41:00,
2013-03-07 19:52:00,45.0,32.0,29.87,SW,218,10.0,14.0,61,0.00,,,0.00,,2013-03-08 03:52:00,
2013-03-07 20:01:00,45.0,32.0,29.87,SW,219,8.0,11.0,61,0.00,,,0.00,,2013-03-08 04:01:00,
2013-03-07 20:11:00,45.0,32.0,29.87,SW,219,8.0,11.0,61,0.00,,,0.00,,2013-03-08 04:11:00,
2013-03-07 20:21:00,44.0,31.0,29.88,SW,218,11.0,17.0,61,0.00,,,0.00,,2013-03-08 04:21:00,
2013-03-07 20:31:00,44.0,31.0,29.88,SW,217,10.0,17.0,61,0.00,,,0.00,,2013-03-08 04:31:00,
2013-03-07 20:42:00,44.0,31.0,29.88,SW,217,10.0,17.0,61,0.00,,,0.00,,2013-03-08 04:42:00,
2013-03-07 20:52:00,44.0,32.0,29.87,SW,217,12.0,18.0,62,0.00,,,0.00,,2013-03-08 04:52:00,
2013-03-07 21:01:00,44.0,32.0,29.87,SW,223,11.0,18.0,62,0.00,,,0.00,,2013-03-08 05:01:00,
2013-03-07 21:11:00,44.0,32.0,29.87,SW,223,11.0,18.0,62,0.00,,,0.00,,2013-03-08 05:11:00,
2013-03-07 21:22:00,43.0,31.0,29.87,SW,223,8.0,14.0,63,0.00,,,0.00,,2013-03-08 05:22:00,
2013-03-07 21:31:00,43.0,31.0,29.87,SW,222,10.0,13.0,63,0.00,,,0.00,,2013-03-08 05:31:00,
2013-03-07 21:42:00,43.0,31.0,29.87,SW,222,10.0,13.0,63,0.00,,,0.00,,2013-03-08 05:42:00,
2013-03-07 21:52:00,43.0,31.0,29.87,SW,228,7.0,12.0,62,0.00,,,0.00,,2013-03-08 05:52:00,
2013-03-07 22:01:00,43.0,31.0,29.87,SW,224,8.0,12.0,62,0.00,,,0.00,,2013-03-08 06:01:00,
2013-03-07 22:11:00,43.0,31.0,29.87,SW,224,8.0,12.0,62,0.00,,,0.00,,2013-03-08 06:11:00,
2013-03-07 22:21:00,43.0,31.0,29.86,West,265,5.0,10.0,63,0.00,,,0.00,,2013-03-08 06:21:00,
2013-03-07 22:31:00,43.0,31.0,29.86,WSW,258,6.0,10.0,63,0.00,,,0.00,,2013-03-08 06:31:00,
2013-03-07 22:41:00,43.0,31.0,29.86,WSW,258,6.0,10.0,63,0.00,,,0.00,,2013-03-08 06:41:00,
2013-03-07 22:52:00,43.0,31.0,29.85,WSW,254,6.0,10.0,63,0.00,,,0.00,,2013-03-08 06:52:00,
2013-03-07 23:01:00,43.0,31.0,29.84,SW,235,6.0,11.0,63,0.00,,,0.00,,2013-03-08 07:01:00,
2013-03-07 23:11:00,43.0,31.0,29.84,SW,235,6.0,11.0,63,0.00,,,0.00,,2013-03-08 07:11:00,
2013-03-07 23:21:00,43.0,33.0,29.84,SW,230,4.0,10.0,67,0.00,,,0.00,,2013-03-08 07:21:00,
2013-03-07 23:31:00,43.0,34.0,29.83,SW,229,7.0,13.0,69,0.00,,,0.00,,2013-03-08 07:31:00,
2013-03-07 23:41:00,43.0,34.0,29.83,SW,229,7.0,13.0,69,0.00,,,0.00,,2013-03-08 07:41:00,
2013-03-07 23:52:00,43.0,34.0,29.83,WSW,239,6.0,12.0,69,0.00,,,0.00,,2013-03-08 07:52:00,